sensor_id;sensor_type;location;lat;lon;timestamp;temperature;humidity
20560;DHT22;10438;51.454;6.718;2022-12-29T00:01:36;11.20;99.90
20560;DHT22;10438;51.454;6.718;2022-12-29T00:04:03;11.20;99.90
20560;DHT22;10438;51.454;6.718;2022-12-29T00:06:29;11.10;99.90
20560;DHT22;10438;51.454;6.718;2022-12-29T00:08:55;11.00;99.90
20560;DHT22;10438;51.454;6.718;2022-12-29T00:11:23;10.90;99.90
20560;DHT22;10438;51.454;6.718;2022-12-29T00:13:49;10.80;99.90
20560;DHT22;10438;51.454;6.718;2022-12-29T00:16:34;10.70;99.90
20560;DHT22;10438;51.454;6.718;2022-12-29T00:19:01;10.70;99.90
20560;DHT22;10438;51.454;6.718;2022-12-29T00:21:27;10.70;99.90
20560;DHT22;10438;51.454;6.718;2022-12-29T00:24:17;10.70;99.90
20560;DHT22;10438;51.454;6.718;2022-12-29T00:29:48;10.80;99.90
20560;DHT22;10438;51.454;6.718;2022-12-29T00:32:32;10.90;99.90
20560;DHT22;10438;51.454;6.718;2022-12-29T00:35:43;11.00;99.90
20560;DHT22;10438;51.454;6.718;2022-12-29T00:38:10;11.10;99.90
20560;DHT22;10438;51.454;6.718;2022-12-29T00:40:56;11.10;99.90
20560;DHT22;10438;51.454;6.718;2022-12-29T00:43:40;11.10;99.90
20560;DHT22;10438;51.454;6.718;2022-12-29T00:46:24;11.20;99.90
20560;DHT22;10438;51.454;6.718;2022-12-29T00:48:49;11.20;99.90
20560;DHT22;10438;51.454;6.718;2022-12-29T00:51:33;11.10;99.90
20560;DHT22;10438;51.454;6.718;2022-12-29T00:53:59;11.10;99.90
20560;DHT22;10438;51.454;6.718;2022-12-29T00:56:24;11.00;99.90
20560;DHT22;10438;51.454;6.718;2022-12-29T00:58:50;11.00;99.90
20560;DHT22;10438;51.454;6.718;2022-12-29T01:01:15;10.90;99.90
20560;DHT22;10438;51.454;6.718;2022-12-29T01:03:41;10.80;99.90
20560;DHT22;10438;51.454;6.718;2022-12-29T01:06:08;10.80;99.90
20560;DHT22;10438;51.454;6.718;2022-12-29T01:08:34;10.80;99.90
20560;DHT22;10438;51.454;6.718;2022-12-29T01:11:10;10.80;99.90
20560;DHT22;10438;51.454;6.718;2022-12-29T01:13:36;10.80;99.90
20560;DHT22;10438;51.454;6.718;2022-12-29T01:16:04;10.90;99.90
20560;DHT22;10438;51.454;6.718;2022-12-29T01:18:29;10.90;99.90
20560;DHT22;10438;51.454;6.718;2022-12-29T01:21:03;11.00;99.90
20560;DHT22;10438;51.454;6.718;2022-12-29T01:23:29;11.10;99.90
20560;DHT22;10438;51.454;6.718;2022-12-29T01:25:55;11.10;99.90
20560;DHT22;10438;51.454;6.718;2022-12-29T01:28:20;11.20;99.90
20560;DHT22;10438;51.454;6.718;2022-12-29T01:30:46;11.40;99.90
20560;DHT22;10438;51.454;6.718;2022-12-29T01:33:12;11.50;99.90
20560;DHT22;10438;51.454;6.718;2022-12-29T01:35:37;11.70;99.90
20560;DHT22;10438;51.454;6.718;2022-12-29T01:38:02;11.70;99.90
20560;DHT22;10438;51.454;6.718;2022-12-29T01:40:28;11.80;99.90
20560;DHT22;10438;51.454;6.718;2022-12-29T01:42:54;11.70;99.90
20560;DHT22;10438;51.454;6.718;2022-12-29T01:45:19;11.80;99.90
20560;DHT22;10438;51.454;6.718;2022-12-29T01:47:55;11.80;99.90
20560;DHT22;10438;51.454;6.718;2022-12-29T01:50:35;11.80;99.90
20560;DHT22;10438;51.454;6.718;2022-12-29T01:53:08;11.80;99.90
20560;DHT22;10438;51.454;6.718;2022-12-29T01:55:42;11.90;99.90
20560;DHT22;10438;51.454;6.718;2022-12-29T01:58:09;11.90;99.90
20560;DHT22;10438;51.454;6.718;2022-12-29T02:00:37;11.80;99.90
20560;DHT22;10438;51.454;6.718;2022-12-29T02:03:03;11.90;99.90
20560;DHT22;10438;51.454;6.718;2022-12-29T02:05:41;11.90;99.90
20560;DHT22;10438;51.454;6.718;2022-12-29T02:08:08;12.00;99.90
20560;DHT22;10438;51.454;6.718;2022-12-29T02:10:35;12.00;99.90
20560;DHT22;10438;51.454;6.718;2022-12-29T02:13:01;11.90;99.90
20560;DHT22;10438;51.454;6.718;2022-12-29T02:15:35;12.00;99.90
20560;DHT22;10438;51.454;6.718;2022-12-29T02:24:05;12.00;99.90
20560;DHT22;10438;51.454;6.718;2022-12-29T02:29:19;12.00;99.90
20560;DHT22;10438;51.454;6.718;2022-12-29T02:34:52;12.10;99.90
20560;DHT22;10438;51.454;6.718;2022-12-29T02:37:25;12.00;99.90
20560;DHT22;10438;51.454;6.718;2022-12-29T02:40:00;12.00;99.90
20560;DHT22;10438;51.454;6.718;2022-12-29T02:45:05;12.00;99.90
20560;DHT22;10438;51.454;6.718;2022-12-29T02:47:46;12.00;99.90
20560;DHT22;10438;51.454;6.718;2022-12-29T02:50:29;12.00;99.90
20560;DHT22;10438;51.454;6.718;2022-12-29T02:53:06;12.00;99.90
20560;DHT22;10438;51.454;6.718;2022-12-29T02:55:33;12.00;99.90
20560;DHT22;10438;51.454;6.718;2022-12-29T02:58:20;12.10;99.90
20560;DHT22;10438;51.454;6.718;2022-12-29T03:01:00;12.10;99.90
20560;DHT22;10438;51.454;6.718;2022-12-29T03:03:51;12.10;99.90
20560;DHT22;10438;51.454;6.718;2022-12-29T03:09:38;12.10;99.90
20560;DHT22;10438;51.454;6.718;2022-12-29T03:12:29;12.10;99.90
20560;DHT22;10438;51.454;6.718;2022-12-29T03:15:39;12.10;99.90
20560;DHT22;10438;51.454;6.718;2022-12-29T03:21:39;12.10;99.90
20560;DHT22;10438;51.454;6.718;2022-12-29T03:24:36;12.10;99.90
20560;DHT22;10438;51.454;6.718;2022-12-29T03:27:06;12.00;99.90
20560;DHT22;10438;51.454;6.718;2022-12-29T03:29:39;12.00;99.90
20560;DHT22;10438;51.454;6.718;2022-12-29T03:32:07;12.10;99.90
20560;DHT22;10438;51.454;6.718;2022-12-29T03:34:34;12.10;99.90
20560;DHT22;10438;51.454;6.718;2022-12-29T03:37:11;12.10;99.90
20560;DHT22;10438;51.454;6.718;2022-12-29T03:39:37;12.10;99.90
20560;DHT22;10438;51.454;6.718;2022-12-29T03:42:06;12.20;99.90
20560;DHT22;10438;51.454;6.718;2022-12-29T03:44:41;12.20;99.90
20560;DHT22;10438;51.454;6.718;2022-12-29T03:47:07;12.20;99.90
20560;DHT22;10438;51.454;6.718;2022-12-29T03:49:35;12.20;99.90
20560;DHT22;10438;51.454;6.718;2022-12-29T03:52:00;12.10;99.90
20560;DHT22;10438;51.454;6.718;2022-12-29T03:54:26;12.00;99.90
20560;DHT22;10438;51.454;6.718;2022-12-29T03:56:51;12.10;99.90
20560;DHT22;10438;51.454;6.718;2022-12-29T03:59:17;12.10;99.90
20560;DHT22;10438;51.454;6.718;2022-12-29T04:01:42;12.10;99.90
20560;DHT22;10438;51.454;6.718;2022-12-29T04:04:08;12.20;99.90
20560;DHT22;10438;51.454;6.718;2022-12-29T04:06:34;12.10;99.90
20560;DHT22;10438;51.454;6.718;2022-12-29T04:08:59;12.00;99.90
20560;DHT22;10438;51.454;6.718;2022-12-29T04:11:25;11.90;99.90
20560;DHT22;10438;51.454;6.718;2022-12-29T04:13:50;11.90;99.90
20560;DHT22;10438;51.454;6.718;2022-12-29T04:16:16;11.90;99.90
20560;DHT22;10438;51.454;6.718;2022-12-29T04:18:41;12.00;99.90
20560;DHT22;10438;51.454;6.718;2022-12-29T04:21:07;12.00;99.90
20560;DHT22;10438;51.454;6.718;2022-12-29T04:23:35;12.00;99.90
20560;DHT22;10438;51.454;6.718;2022-12-29T04:26:01;12.00;99.90
20560;DHT22;10438;51.454;6.718;2022-12-29T04:28:26;12.00;99.90
20560;DHT22;10438;51.454;6.718;2022-12-29T04:30:52;12.00;99.90
20560;DHT22;10438;51.454;6.718;2022-12-29T04:33:18;12.00;99.90
20560;DHT22;10438;51.454;6.718;2022-12-29T04:35:44;12.10;99.90
20560;DHT22;10438;51.454;6.718;2022-12-29T04:38:09;12.20;99.90
20560;DHT22;10438;51.454;6.718;2022-12-29T04:40:37;12.30;99.90
20560;DHT22;10438;51.454;6.718;2022-12-29T04:43:03;12.30;99.90
20560;DHT22;10438;51.454;6.718;2022-12-29T04:45:28;12.40;99.90
20560;DHT22;10438;51.454;6.718;2022-12-29T04:47:54;12.40;99.90
20560;DHT22;10438;51.454;6.718;2022-12-29T04:50:19;12.50;99.90
20560;DHT22;10438;51.454;6.718;2022-12-29T04:52:45;12.50;99.90
20560;DHT22;10438;51.454;6.718;2022-12-29T04:55:11;12.50;99.90
20560;DHT22;10438;51.454;6.718;2022-12-29T04:57:36;12.50;99.90
20560;DHT22;10438;51.454;6.718;2022-12-29T05:00:03;12.50;99.90
20560;DHT22;10438;51.454;6.718;2022-12-29T05:02:29;12.50;99.90
20560;DHT22;10438;51.454;6.718;2022-12-29T05:04:55;12.50;99.90
20560;DHT22;10438;51.454;6.718;2022-12-29T05:07:20;12.50;99.90
20560;DHT22;10438;51.454;6.718;2022-12-29T05:09:46;12.40;99.90
20560;DHT22;10438;51.454;6.718;2022-12-29T05:12:11;12.40;99.90
20560;DHT22;10438;51.454;6.718;2022-12-29T05:14:37;12.40;99.90
20560;DHT22;10438;51.454;6.718;2022-12-29T05:17:02;12.50;99.90
20560;DHT22;10438;51.454;6.718;2022-12-29T05:19:28;12.50;99.90
20560;DHT22;10438;51.454;6.718;2022-12-29T05:21:53;12.20;99.90
20560;DHT22;10438;51.454;6.718;2022-12-29T05:24:20;12.00;99.90
20560;DHT22;10438;51.454;6.718;2022-12-29T05:26:45;11.80;99.90
20560;DHT22;10438;51.454;6.718;2022-12-29T05:29:11;11.60;99.90
20560;DHT22;10438;51.454;6.718;2022-12-29T05:31:36;11.60;99.90
20560;DHT22;10438;51.454;6.718;2022-12-29T05:34:02;11.50;99.90
20560;DHT22;10438;51.454;6.718;2022-12-29T05:36:28;11.70;99.90
20560;DHT22;10438;51.454;6.718;2022-12-29T05:38:53;11.80;99.90
20560;DHT22;10438;51.454;6.718;2022-12-29T05:41:19;11.90;99.90
20560;DHT22;10438;51.454;6.718;2022-12-29T05:43:45;12.00;99.90
20560;DHT22;10438;51.454;6.718;2022-12-29T05:46:10;11.90;99.90
20560;DHT22;10438;51.454;6.718;2022-12-29T05:48:36;11.90;99.90
20560;DHT22;10438;51.454;6.718;2022-12-29T05:51:01;11.90;99.90
20560;DHT22;10438;51.454;6.718;2022-12-29T05:53:27;11.90;99.90
20560;DHT22;10438;51.454;6.718;2022-12-29T05:55:52;11.80;99.90
20560;DHT22;10438;51.454;6.718;2022-12-29T05:58:18;11.70;99.90
20560;DHT22;10438;51.454;6.718;2022-12-29T06:00:44;11.70;99.90
20560;DHT22;10438;51.454;6.718;2022-12-29T06:03:10;11.60;99.90
20560;DHT22;10438;51.454;6.718;2022-12-29T06:05:36;11.60;99.90
20560;DHT22;10438;51.454;6.718;2022-12-29T06:08:01;11.50;99.90
20560;DHT22;10438;51.454;6.718;2022-12-29T06:10:27;11.50;99.90
20560;DHT22;10438;51.454;6.718;2022-12-29T06:12:52;11.50;99.90
20560;DHT22;10438;51.454;6.718;2022-12-29T06:15:18;11.50;99.90
20560;DHT22;10438;51.454;6.718;2022-12-29T06:17:44;11.50;99.90
20560;DHT22;10438;51.454;6.718;2022-12-29T06:20:10;11.40;99.90
20560;DHT22;10438;51.454;6.718;2022-12-29T06:22:36;11.40;99.90
20560;DHT22;10438;51.454;6.718;2022-12-29T06:25:02;11.40;99.90
20560;DHT22;10438;51.454;6.718;2022-12-29T06:27:28;11.30;99.90
20560;DHT22;10438;51.454;6.718;2022-12-29T06:29:53;11.30;99.90
20560;DHT22;10438;51.454;6.718;2022-12-29T06:32:19;11.30;99.90
20560;DHT22;10438;51.454;6.718;2022-12-29T06:34:45;11.30;99.90
20560;DHT22;10438;51.454;6.718;2022-12-29T06:37:11;11.40;99.90
20560;DHT22;10438;51.454;6.718;2022-12-29T06:39:37;11.50;99.90
20560;DHT22;10438;51.454;6.718;2022-12-29T06:42:02;11.50;99.90
20560;DHT22;10438;51.454;6.718;2022-12-29T06:44:28;11.50;99.90
20560;DHT22;10438;51.454;6.718;2022-12-29T06:46:54;11.50;99.90
20560;DHT22;10438;51.454;6.718;2022-12-29T06:49:20;11.50;99.90
20560;DHT22;10438;51.454;6.718;2022-12-29T06:51:46;11.50;99.90
20560;DHT22;10438;51.454;6.718;2022-12-29T06:54:11;11.40;99.90
20560;DHT22;10438;51.454;6.718;2022-12-29T06:56:37;11.40;99.90
20560;DHT22;10438;51.454;6.718;2022-12-29T06:59:02;11.50;99.90
20560;DHT22;10438;51.454;6.718;2022-12-29T07:01:28;11.50;99.90
20560;DHT22;10438;51.454;6.718;2022-12-29T07:03:54;11.50;99.90
20560;DHT22;10438;51.454;6.718;2022-12-29T07:06:20;11.50;99.90
20560;DHT22;10438;51.454;6.718;2022-12-29T07:08:46;11.50;99.90
20560;DHT22;10438;51.454;6.718;2022-12-29T07:11:11;11.60;99.90
20560;DHT22;10438;51.454;6.718;2022-12-29T07:13:37;11.60;99.90
20560;DHT22;10438;51.454;6.718;2022-12-29T07:16:09;11.60;99.90
20560;DHT22;10438;51.454;6.718;2022-12-29T07:18:35;11.60;99.90
20560;DHT22;10438;51.454;6.718;2022-12-29T07:21:01;11.60;99.90
20560;DHT22;10438;51.454;6.718;2022-12-29T07:23:27;11.70;99.90
20560;DHT22;10438;51.454;6.718;2022-12-29T07:26:08;11.60;99.90
20560;DHT22;10438;51.454;6.718;2022-12-29T07:28:35;11.60;99.90
20560;DHT22;10438;51.454;6.718;2022-12-29T07:31:01;11.60;99.90
20560;DHT22;10438;51.454;6.718;2022-12-29T07:33:30;11.60;99.90
20560;DHT22;10438;51.454;6.718;2022-12-29T07:35:56;11.70;99.90
20560;DHT22;10438;51.454;6.718;2022-12-29T07:38:22;11.70;99.90
20560;DHT22;10438;51.454;6.718;2022-12-29T07:40:48;11.70;99.90
20560;DHT22;10438;51.454;6.718;2022-12-29T07:43:13;11.70;99.90
20560;DHT22;10438;51.454;6.718;2022-12-29T07:45:39;11.70;99.90
20560;DHT22;10438;51.454;6.718;2022-12-29T07:48:05;11.70;99.90
20560;DHT22;10438;51.454;6.718;2022-12-29T07:50:33;11.70;99.90
20560;DHT22;10438;51.454;6.718;2022-12-29T07:52:59;11.70;99.90
20560;DHT22;10438;51.454;6.718;2022-12-29T07:55:24;11.70;99.90
20560;DHT22;10438;51.454;6.718;2022-12-29T07:57:52;11.70;99.90
20560;DHT22;10438;51.454;6.718;2022-12-29T08:00:17;11.60;99.90
20560;DHT22;10438;51.454;6.718;2022-12-29T08:02:43;11.60;99.90
20560;DHT22;10438;51.454;6.718;2022-12-29T08:05:08;11.60;99.90
20560;DHT22;10438;51.454;6.718;2022-12-29T08:07:34;11.50;99.90
20560;DHT22;10438;51.454;6.718;2022-12-29T08:09:59;11.50;99.90
20560;DHT22;10438;51.454;6.718;2022-12-29T08:12:26;11.50;99.90
20560;DHT22;10438;51.454;6.718;2022-12-29T08:14:52;11.50;99.90
20560;DHT22;10438;51.454;6.718;2022-12-29T08:17:17;11.50;99.90
20560;DHT22;10438;51.454;6.718;2022-12-29T08:19:43;11.50;99.90
20560;DHT22;10438;51.454;6.718;2022-12-29T08:22:09;11.50;99.90
20560;DHT22;10438;51.454;6.718;2022-12-29T08:24:34;11.50;99.90
20560;DHT22;10438;51.454;6.718;2022-12-29T08:27:00;11.50;99.90
20560;DHT22;10438;51.454;6.718;2022-12-29T08:29:27;11.40;99.90
20560;DHT22;10438;51.454;6.718;2022-12-29T08:31:53;11.40;99.90
20560;DHT22;10438;51.454;6.718;2022-12-29T08:34:19;11.40;99.90
20560;DHT22;10438;51.454;6.718;2022-12-29T08:36:44;11.40;99.90
20560;DHT22;10438;51.454;6.718;2022-12-29T08:39:10;11.50;99.90
20560;DHT22;10438;51.454;6.718;2022-12-29T08:41:35;11.40;99.90
20560;DHT22;10438;51.454;6.718;2022-12-29T08:44:01;11.40;99.90
20560;DHT22;10438;51.454;6.718;2022-12-29T08:46:27;11.50;99.90
20560;DHT22;10438;51.454;6.718;2022-12-29T08:48:53;11.50;99.90
20560;DHT22;10438;51.454;6.718;2022-12-29T08:51:19;11.50;99.90
20560;DHT22;10438;51.454;6.718;2022-12-29T08:53:44;11.50;99.90
20560;DHT22;10438;51.454;6.718;2022-12-29T08:56:10;11.50;99.90
20560;DHT22;10438;51.454;6.718;2022-12-29T08:58:36;11.50;99.90
20560;DHT22;10438;51.454;6.718;2022-12-29T09:01:02;11.60;99.90
20560;DHT22;10438;51.454;6.718;2022-12-29T09:03:27;11.60;99.90
20560;DHT22;10438;51.454;6.718;2022-12-29T09:05:55;11.60;99.90
20560;DHT22;10438;51.454;6.718;2022-12-29T09:08:21;11.60;99.90
20560;DHT22;10438;51.454;6.718;2022-12-29T09:10:47;11.60;99.90
20560;DHT22;10438;51.454;6.718;2022-12-29T09:13:14;11.50;99.90
20560;DHT22;10438;51.454;6.718;2022-12-29T09:15:40;11.50;99.90
20560;DHT22;10438;51.454;6.718;2022-12-29T09:18:07;11.50;99.90
20560;DHT22;10438;51.454;6.718;2022-12-29T09:20:33;11.50;99.90
20560;DHT22;10438;51.454;6.718;2022-12-29T09:22:59;11.50;99.90
20560;DHT22;10438;51.454;6.718;2022-12-29T09:25:25;11.50;99.90
20560;DHT22;10438;51.454;6.718;2022-12-29T09:27:51;11.50;99.90
20560;DHT22;10438;51.454;6.718;2022-12-29T09:30:19;11.50;99.90
20560;DHT22;10438;51.454;6.718;2022-12-29T09:32:46;11.40;99.90
20560;DHT22;10438;51.454;6.718;2022-12-29T09:35:13;11.40;99.90
20560;DHT22;10438;51.454;6.718;2022-12-29T09:37:38;11.50;99.90
20560;DHT22;10438;51.454;6.718;2022-12-29T09:40:05;11.40;99.90
20560;DHT22;10438;51.454;6.718;2022-12-29T09:48:37;11.50;99.90
20560;DHT22;10438;51.454;6.718;2022-12-29T09:51:10;11.50;99.90
20560;DHT22;10438;51.454;6.718;2022-12-29T09:53:43;11.50;99.90
20560;DHT22;10438;51.454;6.718;2022-12-29T09:56:15;11.60;99.90
20560;DHT22;10438;51.454;6.718;2022-12-29T10:01:41;11.60;99.90
20560;DHT22;10438;51.454;6.718;2022-12-29T10:04:08;11.60;99.90
20560;DHT22;10438;51.454;6.718;2022-12-29T10:06:46;11.60;99.90
20560;DHT22;10438;51.454;6.718;2022-12-29T10:17:36;11.60;99.90
20560;DHT22;10438;51.454;6.718;2022-12-29T10:25:25;11.70;99.90
20560;DHT22;10438;51.454;6.718;2022-12-29T10:27:53;11.70;99.90
20560;DHT22;10438;51.454;6.718;2022-12-29T10:30:21;11.60;99.90
20560;DHT22;10438;51.454;6.718;2022-12-29T10:33:01;11.60;99.90
20560;DHT22;10438;51.454;6.718;2022-12-29T10:35:35;11.60;99.90
20560;DHT22;10438;51.454;6.718;2022-12-29T10:43:33;11.70;99.90
20560;DHT22;10438;51.454;6.718;2022-12-29T10:46:25;11.60;99.90
20560;DHT22;10438;51.454;6.718;2022-12-29T10:48:53;11.60;99.90
20560;DHT22;10438;51.454;6.718;2022-12-29T10:51:28;11.60;99.90
20560;DHT22;10438;51.454;6.718;2022-12-29T10:56:35;11.60;99.90
20560;DHT22;10438;51.454;6.718;2022-12-29T10:59:21;11.60;99.90
20560;DHT22;10438;51.454;6.718;2022-12-29T11:07:03;11.60;99.90
20560;DHT22;10438;51.454;6.718;2022-12-29T11:09:32;11.60;99.90
20560;DHT22;10438;51.454;6.718;2022-12-29T11:11:58;11.50;99.90
20560;DHT22;10438;51.454;6.718;2022-12-29T11:14:31;11.60;99.90
20560;DHT22;10438;51.454;6.718;2022-12-29T11:16:58;11.60;99.90
20560;DHT22;10438;51.454;6.718;2022-12-29T11:19:27;11.60;99.90
20560;DHT22;10438;51.454;6.718;2022-12-29T11:21:53;11.60;99.90
20560;DHT22;10438;51.454;6.718;2022-12-29T11:24:29;11.60;99.90
20560;DHT22;10438;51.454;6.718;2022-12-29T11:27:17;11.60;99.90
20560;DHT22;10438;51.454;6.718;2022-12-29T11:29:43;11.60;99.90
20560;DHT22;10438;51.454;6.718;2022-12-29T11:32:24;11.70;99.90
20560;DHT22;10438;51.454;6.718;2022-12-29T11:34:50;11.80;99.90
20560;DHT22;10438;51.454;6.718;2022-12-29T11:37:30;11.80;99.90
20560;DHT22;10438;51.454;6.718;2022-12-29T11:40:16;11.80;99.90
20560;DHT22;10438;51.454;6.718;2022-12-29T11:42:48;11.80;99.90
20560;DHT22;10438;51.454;6.718;2022-12-29T11:47:50;11.70;99.90
20560;DHT22;10438;51.454;6.718;2022-12-29T11:50:26;11.70;99.90
20560;DHT22;10438;51.454;6.718;2022-12-29T11:53:00;11.70;99.90
20560;DHT22;10438;51.454;6.718;2022-12-29T11:55:27;11.80;99.90
20560;DHT22;10438;51.454;6.718;2022-12-29T11:57:55;11.90;99.90
20560;DHT22;10438;51.454;6.718;2022-12-29T12:00:24;11.90;99.90
20560;DHT22;10438;51.454;6.718;2022-12-29T12:03:21;12.00;99.90
20560;DHT22;10438;51.454;6.718;2022-12-29T12:05:52;12.10;99.90
20560;DHT22;10438;51.454;6.718;2022-12-29T12:11:22;12.00;99.90
20560;DHT22;10438;51.454;6.718;2022-12-29T12:14:07;11.90;99.90
20560;DHT22;10438;51.454;6.718;2022-12-29T12:16:40;11.90;99.90
20560;DHT22;10438;51.454;6.718;2022-12-29T12:19:32;11.80;99.90
20560;DHT22;10438;51.454;6.718;2022-12-29T12:22:31;11.70;99.90
20560;DHT22;10438;51.454;6.718;2022-12-29T12:25:02;11.70;99.90
20560;DHT22;10438;51.454;6.718;2022-12-29T12:28:04;11.70;99.90
20560;DHT22;10438;51.454;6.718;2022-12-29T12:30:40;11.60;99.90
20560;DHT22;10438;51.454;6.718;2022-12-29T12:33:28;11.60;99.90
20560;DHT22;10438;51.454;6.718;2022-12-29T12:39:00;11.60;99.90
20560;DHT22;10438;51.454;6.718;2022-12-29T12:44:11;11.60;99.90
20560;DHT22;10438;51.454;6.718;2022-12-29T12:46:51;11.50;99.90
20560;DHT22;10438;51.454;6.718;2022-12-29T12:55:21;11.50;99.90
20560;DHT22;10438;51.454;6.718;2022-12-29T12:58:03;11.50;99.90
20560;DHT22;10438;51.454;6.718;2022-12-29T13:00:42;11.50;99.90
20560;DHT22;10438;51.454;6.718;2022-12-29T13:06:18;11.60;99.90
20560;DHT22;10438;51.454;6.718;2022-12-29T13:17:25;11.50;99.90
20560;DHT22;10438;51.454;6.718;2022-12-29T13:23:03;11.50;99.90
20560;DHT22;10438;51.454;6.718;2022-12-29T13:25:48;11.50;99.90
20560;DHT22;10438;51.454;6.718;2022-12-29T13:28:30;11.40;99.90
20560;DHT22;10438;51.454;6.718;2022-12-29T13:37:00;11.40;99.90
20560;DHT22;10438;51.454;6.718;2022-12-29T13:39:33;11.40;99.90
20560;DHT22;10438;51.454;6.718;2022-12-29T13:42:01;11.40;99.90
20560;DHT22;10438;51.454;6.718;2022-12-29T13:46:57;11.30;99.90
20560;DHT22;10438;51.454;6.718;2022-12-29T13:49:25;11.30;99.90
20560;DHT22;10438;51.454;6.718;2022-12-29T13:52:03;11.20;99.90
20560;DHT22;10438;51.454;6.718;2022-12-29T13:54:55;11.20;99.90
20560;DHT22;10438;51.454;6.718;2022-12-29T13:57:50;11.10;99.90
20560;DHT22;10438;51.454;6.718;2022-12-29T14:00:21;11.10;99.90
20560;DHT22;10438;51.454;6.718;2022-12-29T14:03:20;11.10;99.90
20560;DHT22;10438;51.454;6.718;2022-12-29T14:06:24;11.00;99.90
20560;DHT22;10438;51.454;6.718;2022-12-29T14:08:51;11.00;99.90
20560;DHT22;10438;51.454;6.718;2022-12-29T14:11:21;10.90;99.90
20560;DHT22;10438;51.454;6.718;2022-12-29T14:13:47;10.90;99.90
20560;DHT22;10438;51.454;6.718;2022-12-29T14:16:28;10.90;99.90
20560;DHT22;10438;51.454;6.718;2022-12-29T14:18:56;10.90;99.90
20560;DHT22;10438;51.454;6.718;2022-12-29T14:21:25;10.80;99.90
20560;DHT22;10438;51.454;6.718;2022-12-29T14:26:45;10.90;99.90
20560;DHT22;10438;51.454;6.718;2022-12-29T14:31:54;10.90;99.90
20560;DHT22;10438;51.454;6.718;2022-12-29T14:36:57;10.90;99.90
20560;DHT22;10438;51.454;6.718;2022-12-29T14:39:38;10.90;99.90
20560;DHT22;10438;51.454;6.718;2022-12-29T14:42:06;11.00;99.90
20560;DHT22;10438;51.454;6.718;2022-12-29T14:44:33;10.90;99.90
20560;DHT22;10438;51.454;6.718;2022-12-29T14:47:05;11.00;99.90
20560;DHT22;10438;51.454;6.718;2022-12-29T14:49:39;11.00;99.90
20560;DHT22;10438;51.454;6.718;2022-12-29T14:52:23;11.00;99.90
20560;DHT22;10438;51.454;6.718;2022-12-29T14:54:57;11.00;99.90
20560;DHT22;10438;51.454;6.718;2022-12-29T14:57:32;11.00;99.90
20560;DHT22;10438;51.454;6.718;2022-12-29T15:02:40;11.00;99.90
20560;DHT22;10438;51.454;6.718;2022-12-29T15:05:25;11.00;99.90
20560;DHT22;10438;51.454;6.718;2022-12-29T15:07:52;11.00;99.90
20560;DHT22;10438;51.454;6.718;2022-12-29T15:10:19;11.00;99.90
20560;DHT22;10438;51.454;6.718;2022-12-29T15:12:53;11.00;99.90
20560;DHT22;10438;51.454;6.718;2022-12-29T15:17:44;11.00;99.90
20560;DHT22;10438;51.454;6.718;2022-12-29T15:20:30;11.10;99.90
20560;DHT22;10438;51.454;6.718;2022-12-29T15:23:09;11.00;99.90
20560;DHT22;10438;51.454;6.718;2022-12-29T15:25:36;11.00;99.90
20560;DHT22;10438;51.454;6.718;2022-12-29T15:28:06;10.90;99.90
20560;DHT22;10438;51.454;6.718;2022-12-29T15:30:33;10.70;99.90
20560;DHT22;10438;51.454;6.718;2022-12-29T15:32:59;10.70;99.90
20560;DHT22;10438;51.454;6.718;2022-12-29T15:35:36;10.60;99.90
20560;DHT22;10438;51.454;6.718;2022-12-29T15:38:27;10.60;99.90
20560;DHT22;10438;51.454;6.718;2022-12-29T15:44:04;10.60;99.90
20560;DHT22;10438;51.454;6.718;2022-12-29T15:46:32;10.70;99.90
20560;DHT22;10438;51.454;6.718;2022-12-29T15:48:58;10.70;99.90
20560;DHT22;10438;51.454;6.718;2022-12-29T15:51:36;10.70;99.90
20560;DHT22;10438;51.454;6.718;2022-12-29T15:54:03;10.70;99.90
20560;DHT22;10438;51.454;6.718;2022-12-29T15:56:30;10.70;99.90
20560;DHT22;10438;51.454;6.718;2022-12-29T15:58:57;10.80;99.90
20560;DHT22;10438;51.454;6.718;2022-12-29T16:03:51;10.70;99.90
20560;DHT22;10438;51.454;6.718;2022-12-29T16:06:37;10.70;99.90
20560;DHT22;10438;51.454;6.718;2022-12-29T16:09:14;10.60;99.90
20560;DHT22;10438;51.454;6.718;2022-12-29T16:11:44;10.60;99.90
20560;DHT22;10438;51.454;6.718;2022-12-29T16:14:24;10.50;99.90
20560;DHT22;10438;51.454;6.718;2022-12-29T16:16:57;10.40;99.90
20560;DHT22;10438;51.454;6.718;2022-12-29T16:21:58;10.40;99.90
20560;DHT22;10438;51.454;6.718;2022-12-29T16:24:29;10.30;99.90
20560;DHT22;10438;51.454;6.718;2022-12-29T16:27:07;10.30;99.90
20560;DHT22;10438;51.454;6.718;2022-12-29T16:29:35;10.30;99.90
20560;DHT22;10438;51.454;6.718;2022-12-29T16:32:01;10.20;99.90
20560;DHT22;10438;51.454;6.718;2022-12-29T16:39:47;10.00;99.90
20560;DHT22;10438;51.454;6.718;2022-12-29T16:48:23;10.00;99.90
20560;DHT22;10438;51.454;6.718;2022-12-29T16:50:50;9.90;99.90
20560;DHT22;10438;51.454;6.718;2022-12-29T16:53:28;9.10;99.90
20560;DHT22;10438;51.454;6.718;2022-12-29T16:55:55;8.50;99.90
20560;DHT22;10438;51.454;6.718;2022-12-29T16:58:25;8.10;99.90
20560;DHT22;10438;51.454;6.718;2022-12-29T17:00:54;7.90;99.90
20560;DHT22;10438;51.454;6.718;2022-12-29T17:03:21;7.70;99.90
20560;DHT22;10438;51.454;6.718;2022-12-29T17:05:46;7.60;99.90
20560;DHT22;10438;51.454;6.718;2022-12-29T17:08:19;7.50;99.90
20560;DHT22;10438;51.454;6.718;2022-12-29T17:10:49;7.50;99.90
20560;DHT22;10438;51.454;6.718;2022-12-29T17:13:34;7.50;99.90
20560;DHT22;10438;51.454;6.718;2022-12-29T17:16:00;7.40;99.90
20560;DHT22;10438;51.454;6.718;2022-12-29T17:18:25;7.40;99.90
20560;DHT22;10438;51.454;6.718;2022-12-29T17:20:51;7.30;99.90
20560;DHT22;10438;51.454;6.718;2022-12-29T17:23:16;7.30;99.90
20560;DHT22;10438;51.454;6.718;2022-12-29T17:25:42;7.30;99.90
20560;DHT22;10438;51.454;6.718;2022-12-29T17:28:34;7.30;99.90
20560;DHT22;10438;51.454;6.718;2022-12-29T17:31:02;7.30;99.90
20560;DHT22;10438;51.454;6.718;2022-12-29T17:33:29;7.40;99.90
20560;DHT22;10438;51.454;6.718;2022-12-29T17:35:57;7.40;99.90
20560;DHT22;10438;51.454;6.718;2022-12-29T17:38:29;7.40;99.90
20560;DHT22;10438;51.454;6.718;2022-12-29T17:40:56;7.40;99.90
20560;DHT22;10438;51.454;6.718;2022-12-29T17:43:22;7.30;99.90
20560;DHT22;10438;51.454;6.718;2022-12-29T17:45:53;7.30;99.90
20560;DHT22;10438;51.454;6.718;2022-12-29T17:48:19;7.30;99.90
20560;DHT22;10438;51.454;6.718;2022-12-29T17:50:47;7.30;99.90
20560;DHT22;10438;51.454;6.718;2022-12-29T17:53:15;7.30;99.90
20560;DHT22;10438;51.454;6.718;2022-12-29T17:55:41;7.30;99.90
20560;DHT22;10438;51.454;6.718;2022-12-29T17:58:18;7.30;99.90
20560;DHT22;10438;51.454;6.718;2022-12-29T18:00:45;7.30;99.90
20560;DHT22;10438;51.454;6.718;2022-12-29T18:03:22;7.30;99.90
20560;DHT22;10438;51.454;6.718;2022-12-29T18:05:48;7.20;99.90